高雄國際航空站 - 塔台/地面席

METAR RCKH 211400Z VRB02KT 7000 FEW015 SCT040 25/21 Q1016 NOSIG RMK A3003=

站台狀態:Online
最後更新:2018-11-21 22:15:02